Time;durP1;ratioP1;P1;durP2;ratioP2;P2;SDS_P1;SDS_P2;PMS_P1;PMS_P2;Temp;Humidity;BMP_temperature;BMP_pressure;BME280_temperature;BME280_humidity;BME280_pressure;Samples;Min_cycle;Max_cycle;Signal;HPM_P1;HPM_P2
2021/06/26 00:02:05;;;;;;;5.90;3.95;;;;;;;;;;4927144;28;20067;-78
2021/06/26 00:04:32;;;;;;;6.00;4.00;;;;;;;;;;4925943;28;20063;-77
2021/06/26 00:06:58;;;;;;;4.30;3.90;;;;;;;;;;4941070;28;20107;-78
2021/06/26 00:09:25;;;;;;;5.68;4.28;;;;;;;;;;4925523;29;20067;-78
2021/06/26 00:11:51;;;;;;;4.68;3.83;;;;;;;;;;4924028;28;20507;-77
2021/06/26 00:14:18;;;;;;;5.75;3.92;;;;;;;;;;4928433;28;20067;-80
2021/06/26 00:16:44;;;;;;;4.90;3.58;;;;;;;;;;4925934;28;20055;-79
2021/06/26 00:19:11;;;;;;;5.13;3.50;;;;;;;;;;4927939;28;20150;-77
2021/06/26 00:21:37;;;;;;;4.80;4.00;;;;;;;;;;4928868;28;20067;-77
2021/06/26 00:24:04;;;;;;;4.65;3.40;;;;;;;;;;4928424;28;20059;-77
2021/06/26 00:26:31;;;;;;;5.03;3.47;;;;;;;;;;4927534;28;20059;-77
2021/06/26 00:28:57;;;;;;;4.90;3.90;;;;;;;;;;4926944;28;20079;-77
2021/06/26 00:31:24;;;;;;;4.30;3.50;;;;;;;;;;4927117;28;20056;-78
2021/06/26 00:33:50;;;;;;;4.85;3.80;;;;;;;;;;4927191;28;20048;-77
2021/06/26 00:36:16;;;;;;;4.70;3.90;;;;;;;;;;4926934;28;20060;-76
2021/06/26 00:38:43;;;;;;;7.18;3.40;;;;;;;;;;4924315;28;20129;-77
2021/06/26 00:41:10;;;;;;;5.90;3.97;;;;;;;;;;4927558;28;20054;-77
2021/06/26 00:43:36;;;;;;;5.65;3.65;;;;;;;;;;4926682;29;20059;-78
2021/06/26 00:46:02;;;;;;;5.30;3.53;;;;;;;;;;4927739;28;20079;-77
2021/06/26 00:48:29;;;;;;;4.40;3.55;;;;;;;;;;4928169;28;20460;-76
2021/06/26 00:50:55;;;;;;;4.78;3.40;;;;;;;;;;4926636;28;20059;-77
2021/06/26 00:53:22;;;;;;;4.38;3.53;;;;;;;;;;4926291;29;20062;-77
2021/06/26 00:55:54;;;;;;;4.28;3.80;;;;;;;;;;4927241;28;20043;-77
2021/06/26 00:58:21;;;;;;;4.95;3.60;;;;;;;;;;4929142;28;20456;-76
2021/06/26 01:00:48;;;;;;;4.20;3.55;;;;;;;;;;4930959;28;20138;-78
2021/06/26 01:03:15;;;;;;;5.38;3.90;;;;;;;;;;4925856;29;20068;-78
2021/06/26 01:05:41;;;;;;;7.53;3.50;;;;;;;;;;4926258;28;20079;-78
2021/06/26 01:08:07;;;;;;;6.25;3.72;;;;;;;;;;4924250;28;20287;-78
2021/06/26 01:10:34;;;;;;;6.03;3.63;;;;;;;;;;4928064;28;20059;-78
2021/06/26 01:13:01;;;;;;;4.28;3.20;;;;;;;;;;4927110;28;20122;-78
2021/06/26 01:15:27;;;;;;;4.55;3.47;;;;;;;;;;4927938;28;20063;-77
2021/06/26 01:17:54;;;;;;;4.32;3.60;;;;;;;;;;4925171;28;20059;-76
2021/06/26 01:20:20;;;;;;;4.95;3.67;;;;;;;;;;4925629;29;20086;-79
2021/06/26 01:22:50;;;;;;;4.70;3.65;;;;;;;;;;4926674;28;20063;-77
2021/06/26 01:25:22;;;;;;;4.67;3.60;;;;;;;;;;4926686;28;20038;-77
2021/06/26 01:27:49;;;;;;;4.45;3.40;;;;;;;;;;4923842;28;20074;-78
2021/06/26 01:30:17;;;;;;;4.68;3.63;;;;;;;;;;4926229;28;20055;-78
2021/06/26 01:32:44;;;;;;;5.40;3.53;;;;;;;;;;4926423;28;20051;-78
2021/06/26 01:35:10;;;;;;;4.40;3.47;;;;;;;;;;4926641;29;20110;-78
2021/06/26 01:37:40;;;;;;;5.20;3.72;;;;;;;;;;4925970;28;20503;-78
2021/06/26 01:40:08;;;;;;;4.03;3.13;;;;;;;;;;4924859;28;20626;-78
2021/06/26 01:42:34;;;;;;;4.63;3.53;;;;;;;;;;4925758;28;20071;-77
2021/06/26 01:45:01;;;;;;;4.13;3.53;;;;;;;;;;4925401;28;20491;-77
2021/06/26 01:47:29;;;;;;;5.93;3.85;;;;;;;;;;4927007;28;20111;-77
2021/06/26 01:49:55;;;;;;;4.22;3.53;;;;;;;;;;4928817;28;20558;-79
2021/06/26 01:52:21;;;;;;;4.43;3.80;;;;;;;;;;4930659;28;20063;-77
2021/06/26 01:54:48;;;;;;;5.25;3.90;;;;;;;;;;4928956;28;20066;-78
2021/06/26 01:57:14;;;;;;;5.70;3.58;;;;;;;;;;4930294;28;20063;-77
2021/06/26 01:59:41;;;;;;;5.53;3.97;;;;;;;;;;4929404;29;20056;-77
2021/06/26 02:02:08;;;;;;;4.55;3.85;;;;;;;;;;4929155;28;20139;-77
2021/06/26 02:04:34;;;;;;;4.88;3.50;;;;;;;;;;4929128;28;20063;-76
2021/06/26 02:07:01;;;;;;;3.95;3.20;;;;;;;;;;4928081;28;20093;-77
2021/06/26 02:09:27;;;;;;;5.25;3.60;;;;;;;;;;4923162;29;20062;-78
2021/06/26 02:11:54;;;;;;;5.57;3.63;;;;;;;;;;4937608;28;20059;-76
2021/06/26 02:14:20;;;;;;;5.35;3.78;;;;;;;;;;4929607;28;20059;-77
2021/06/26 02:16:47;;;;;;;4.30;3.40;;;;;;;;;;4925053;28;20063;-78
2021/06/26 02:19:13;;;;;;;3.97;3.45;;;;;;;;;;4928157;29;20071;-76
2021/06/26 02:21:40;;;;;;;5.35;3.67;;;;;;;;;;4927260;28;20067;-75
2021/06/26 02:24:06;;;;;;;4.72;3.92;;;;;;;;;;4928137;28;20511;-77
2021/06/26 02:26:32;;;;;;;4.35;3.92;;;;;;;;;;4928703;28;20062;-77
2021/06/26 02:28:59;;;;;;;4.75;3.70;;;;;;;;;;4926356;28;20067;-77
2021/06/26 02:31:25;;;;;;;4.45;3.40;;;;;;;;;;4943797;28;20056;-77
2021/06/26 02:33:52;;;;;;;5.40;3.88;;;;;;;;;;4927342;28;20468;-76
2021/06/26 02:36:18;;;;;;;5.22;4.30;;;;;;;;;;4929070;28;20055;-76
2021/06/26 02:38:44;;;;;;;6.45;4.18;;;;;;;;;;4928694;28;20056;-78
2021/06/26 02:41:11;;;;;;;5.43;3.65;;;;;;;;;;4927915;28;20074;-77
2021/06/26 02:43:37;;;;;;;5.22;4.25;;;;;;;;;;4927716;29;20107;-78
2021/06/26 02:46:04;;;;;;;6.30;4.40;;;;;;;;;;4926659;28;20492;-77
2021/06/26 02:48:30;;;;;;;4.60;3.70;;;;;;;;;;4927690;28;20079;-79
2021/06/26 02:50:56;;;;;;;4.55;3.42;;;;;;;;;;4927544;28;20063;-78
2021/06/26 02:53:23;;;;;;;5.55;3.65;;;;;;;;;;4927676;28;20066;-78
2021/06/26 02:55:55;;;;;;;4.30;3.47;;;;;;;;;;4928392;28;20067;-79
2021/06/26 02:58:23;;;;;;;4.55;3.50;;;;;;;;;;4923282;29;20118;-79
2021/06/26 03:00:49;;;;;;;4.00;3.20;;;;;;;;;;4927055;28;20058;-78
2021/06/26 03:03:15;;;;;;;4.72;3.45;;;;;;;;;;4929282;28;20125;-78
2021/06/26 03:05:42;;;;;;;10.27;3.72;;;;;;;;;;4926872;29;20063;-77
2021/06/26 03:08:09;;;;;;;5.25;3.60;;;;;;;;;;4926961;28;20413;-77
2021/06/26 03:10:36;;;;;;;6.80;3.70;;;;;;;;;;4927437;28;20075;-77
2021/06/26 03:13:02;;;;;;;5.55;3.42;;;;;;;;;;4927727;28;21757;-76
2021/06/26 03:15:28;;;;;;;5.38;3.50;;;;;;;;;;4930367;28;20059;-78
2021/06/26 03:17:55;;;;;;;4.70;3.20;;;;;;;;;;4926969;28;20495;-77
2021/06/26 03:20:21;;;;;;;4.68;3.40;;;;;;;;;;4927753;28;20063;-79
2021/06/26 03:22:47;;;;;;;4.28;3.42;;;;;;;;;;4927137;28;20071;-80
2021/06/26 03:25:14;;;;;;;5.13;3.70;;;;;;;;;;4927450;28;20517;-79
2021/06/26 03:27:41;;;;;;;5.15;3.70;;;;;;;;;;4929339;29;20503;-79
2021/06/26 03:30:08;;;;;;;5.10;3.58;;;;;;;;;;4926644;28;20104;-80
2021/06/26 03:32:34;;;;;;;4.20;3.42;;;;;;;;;;4928245;28;20099;-78
2021/06/26 03:35:01;;;;;;;4.82;3.00;;;;;;;;;;4926936;28;20697;-79
2021/06/26 03:37:28;;;;;;;5.82;3.40;;;;;;;;;;4928667;28;20733;-79
2021/06/26 03:39:54;;;;;;;3.55;3.15;;;;;;;;;;4927957;28;20056;-80
2021/06/26 03:42:20;;;;;;;3.60;3.17;;;;;;;;;;4931115;28;20071;-79
2021/06/26 03:44:47;;;;;;;3.92;3.22;;;;;;;;;;4930353;28;20067;-78
2021/06/26 03:47:13;;;;;;;3.65;2.97;;;;;;;;;;4924678;28;20051;-79
2021/06/26 03:49:40;;;;;;;5.53;3.03;;;;;;;;;;4928504;28;20649;-78
2021/06/26 03:52:07;;;;;;;4.40;3.10;;;;;;;;;;4922775;28;20527;-77
2021/06/26 03:54:34;;;;;;;4.15;2.83;;;;;;;;;;4927125;28;20063;-78
2021/06/26 03:57:01;;;;;;;3.63;2.92;;;;;;;;;;4924968;28;20150;-77
2021/06/26 03:59:27;;;;;;;3.85;3.17;;;;;;;;;;4926322;28;20067;-78
2021/06/26 04:01:53;;;;;;;4.45;3.28;;;;;;;;;;4926519;28;20075;-77
2021/06/26 04:04:20;;;;;;;3.97;3.25;;;;;;;;;;4919700;28;20075;-78
2021/06/26 04:06:47;;;;;;;4.55;3.40;;;;;;;;;;4939345;28;20138;-78
2021/06/26 04:09:14;;;;;;;3.55;3.17;;;;;;;;;;4926771;28;20078;-77
2021/06/26 04:11:40;;;;;;;3.90;3.50;;;;;;;;;;4927120;29;20059;-77
2021/06/26 04:14:06;;;;;;;3.85;2.92;;;;;;;;;;4927184;29;20055;-79
2021/06/26 04:16:33;;;;;;;4.90;3.30;;;;;;;;;;4926601;28;20059;-78
2021/06/26 04:18:59;;;;;;;4.57;3.00;;;;;;;;;;4926305;28;20062;-76
2021/06/26 04:21:26;;;;;;;4.85;3.20;;;;;;;;;;4925717;29;20059;-76
2021/06/26 04:23:52;;;;;;;3.88;3.30;;;;;;;;;;4926603;28;20035;-76
2021/06/26 04:26:19;;;;;;;3.58;2.88;;;;;;;;;;4927637;28;20626;-77
2021/06/26 04:28:45;;;;;;;3.90;2.90;;;;;;;;;;4924165;28;20047;-78
2021/06/26 04:31:12;;;;;;;3.50;2.80;;;;;;;;;;4927844;28;20500;-77
2021/06/26 04:33:38;;;;;;;3.90;3.17;;;;;;;;;;4926171;28;20055;-78
2021/06/26 04:36:05;;;;;;;4.38;3.20;;;;;;;;;;4925127;28;20059;-78
2021/06/26 04:38:32;;;;;;;4.75;3.13;;;;;;;;;;4927834;28;20036;-77
2021/06/26 04:40:58;;;;;;;3.17;2.55;;;;;;;;;;4923548;28;20723;-76
2021/06/26 04:43:25;;;;;;;4.10;2.80;;;;;;;;;;4925526;28;20067;-76
2021/06/26 04:45:51;;;;;;;3.80;2.95;;;;;;;;;;4926257;28;20065;-77
2021/06/26 04:48:18;;;;;;;3.95;2.53;;;;;;;;;;4926043;28;20063;-77
2021/06/26 04:50:44;;;;;;;4.03;3.10;;;;;;;;;;4925176;28;20055;-77
2021/06/26 04:53:11;;;;;;;3.88;2.88;;;;;;;;;;4926278;28;20086;-77
2021/06/26 04:55:37;;;;;;;4.20;2.90;;;;;;;;;;4925061;28;20051;-77
2021/06/26 04:58:03;;;;;;;4.00;3.20;;;;;;;;;;4923767;28;20122;-78
2021/06/26 05:00:30;;;;;;;4.57;3.30;;;;;;;;;;4925474;28;20647;-77
2021/06/26 05:02:58;;;;;;;4.03;2.88;;;;;;;;;;4926196;29;20078;-77
2021/06/26 05:05:24;;;;;;;4.80;3.05;;;;;;;;;;4926187;28;20051;-78
2021/06/26 05:07:50;;;;;;;4.35;3.08;;;;;;;;;;4925496;28;20476;-76
2021/06/26 05:10:17;;;;;;;3.45;2.95;;;;;;;;;;4924998;28;20071;-77
2021/06/26 05:12:44;;;;;;;3.75;2.95;;;;;;;;;;4925905;28;20055;-79
2021/06/26 05:15:10;;;;;;;3.08;2.60;;;;;;;;;;4927623;28;20059;-77
2021/06/26 05:17:37;;;;;;;4.85;3.10;;;;;;;;;;4924793;28;20444;-78
2021/06/26 05:20:04;;;;;;;3.40;2.70;;;;;;;;;;4926028;28;20075;-78
2021/06/26 05:22:31;;;;;;;3.28;2.55;;;;;;;;;;4929478;28;20484;-77
2021/06/26 05:24:57;;;;;;;4.30;2.90;;;;;;;;;;4928275;28;20080;-78
2021/06/26 05:27:23;;;;;;;3.40;2.63;;;;;;;;;;4930502;28;20526;-83
2021/06/26 05:29:50;;;;;;;3.78;2.72;;;;;;;;;;4928787;28;20075;-79
2021/06/26 05:32:16;;;;;;;3.83;3.00;;;;;;;;;;4929061;28;20048;-80
2021/06/26 05:34:42;;;;;;;3.72;2.67;;;;;;;;;;4930849;28;20550;-80
2021/06/26 05:37:09;;;;;;;3.22;2.45;;;;;;;;;;4928243;28;20059;-79
2021/06/26 05:39:36;;;;;;;3.60;2.70;;;;;;;;;;4928568;29;20043;-80
2021/06/26 05:42:02;;;;;;;3.45;2.78;;;;;;;;;;4927926;28;20357;-78
2021/06/26 05:44:28;;;;;;;3.97;2.17;;;;;;;;;;4929265;28;20443;-78
2021/06/26 05:46:55;;;;;;;4.40;2.50;;;;;;;;;;4927718;28;20185;-78
2021/06/26 05:49:21;;;;;;;2.58;2.03;;;;;;;;;;4929919;28;20063;-79
2021/06/26 05:51:48;;;;;;;3.60;2.50;;;;;;;;;;4928520;28;20055;-80
2021/06/26 05:54:14;;;;;;;3.70;2.30;;;;;;;;;;4928515;28;20507;-80
2021/06/26 05:56:40;;;;;;;3.75;2.75;;;;;;;;;;4928896;28;20577;-80
2021/06/26 05:59:07;;;;;;;3.08;2.30;;;;;;;;;;4928383;29;20063;-81
2021/06/26 06:01:33;;;;;;;3.15;2.20;;;;;;;;;;4931226;28;20055;-79
2021/06/26 06:03:59;;;;;;;3.50;2.45;;;;;;;;;;4928107;29;20074;-81
2021/06/26 06:06:26;;;;;;;3.08;2.33;;;;;;;;;;4934713;28;20071;-79
2021/06/26 06:08:52;;;;;;;4.70;2.20;;;;;;;;;;4935508;28;20684;-81
2021/06/26 06:11:19;;;;;;;4.32;2.88;;;;;;;;;;4929057;29;20027;-80
2021/06/26 06:13:45;;;;;;;5.35;3.17;;;;;;;;;;4928145;29;20058;-80
2021/06/26 06:16:11;;;;;;;4.00;2.90;;;;;;;;;;4930519;28;20062;-81
2021/06/26 06:18:38;;;;;;;4.13;2.90;;;;;;;;;;4929339;28;20145;-80
2021/06/26 06:21:05;;;;;;;5.03;2.85;;;;;;;;;;4930029;28;20067;-79
2021/06/26 06:23:31;;;;;;;4.32;3.35;;;;;;;;;;4927473;28;20452;-80
2021/06/26 06:25:57;;;;;;;3.78;2.95;;;;;;;;;;4926561;28;20067;-79
2021/06/26 06:28:24;;;;;;;4.55;2.90;;;;;;;;;;4929116;28;20051;-80
2021/06/26 06:30:50;;;;;;;5.00;3.08;;;;;;;;;;4927812;28;20036;-80
2021/06/26 06:33:17;;;;;;;3.40;2.58;;;;;;;;;;4910884;29;20130;-80
2021/06/26 06:35:43;;;;;;;4.07;2.65;;;;;;;;;;4927757;28;20067;-80
2021/06/26 06:38:10;;;;;;;4.97;2.97;;;;;;;;;;4929078;28;20547;-80
2021/06/26 06:40:36;;;;;;;3.20;2.70;;;;;;;;;;4928546;28;20059;-80
2021/06/26 06:43:03;;;;;;;6.05;3.10;;;;;;;;;;4925441;28;20119;-79
2021/06/26 06:45:29;;;;;;;3.97;2.80;;;;;;;;;;4926885;29;20099;-80
2021/06/26 06:47:56;;;;;;;3.58;2.85;;;;;;;;;;4925870;29;20091;-81
2021/06/26 06:50:22;;;;;;;3.63;2.50;;;;;;;;;;4929499;28;20111;-81
2021/06/26 06:52:48;;;;;;;4.82;2.65;;;;;;;;;;4925848;28;20559;-79
2021/06/26 06:55:15;;;;;;;4.57;2.50;;;;;;;;;;4927518;28;20068;-79
2021/06/26 06:57:41;;;;;;;3.70;3.10;;;;;;;;;;4927652;29;20090;-80
2021/06/26 07:00:08;;;;;;;4.78;3.13;;;;;;;;;;4926126;28;20091;-81
2021/06/26 07:02:35;;;;;;;5.20;3.78;;;;;;;;;;4925732;28;20142;-80
2021/06/26 07:05:02;;;;;;;4.10;3.47;;;;;;;;;;4925862;29;20497;-79
2021/06/26 07:07:28;;;;;;;5.93;3.42;;;;;;;;;;4928866;28;20074;-79
2021/06/26 07:09:55;;;;;;;4.78;3.55;;;;;;;;;;4926651;28;20078;-80
2021/06/26 07:12:21;;;;;;;4.70;3.30;;;;;;;;;;4928288;28;20574;-80
2021/06/26 07:14:48;;;;;;;3.97;3.03;;;;;;;;;;4927810;28;20798;-80
2021/06/26 07:17:14;;;;;;;4.47;3.17;;;;;;;;;;4928138;28;20063;-80
2021/06/26 07:19:40;;;;;;;4.28;3.20;;;;;;;;;;4927974;28;20059;-76
2021/06/26 07:22:07;;;;;;;5.28;3.13;;;;;;;;;;4927685;28;20452;-77
2021/06/26 07:24:36;;;;;;;4.15;2.88;;;;;;;;;;4928915;29;20059;-77
2021/06/26 07:27:02;;;;;;;8.05;3.38;;;;;;;;;;4932090;28;20656;-76
2021/06/26 07:29:28;;;;;;;5.85;3.20;;;;;;;;;;4926911;29;20059;-78
2021/06/26 07:31:55;;;;;;;4.25;3.08;;;;;;;;;;4927403;28;20067;-77
2021/06/26 07:34:21;;;;;;;5.00;2.92;;;;;;;;;;4927485;28;20078;-79
2021/06/26 07:36:48;;;;;;;4.97;2.85;;;;;;;;;;4928191;28;20059;-78
2021/06/26 07:39:14;;;;;;;5.03;2.65;;;;;;;;;;4928569;28;20052;-78
2021/06/26 07:41:40;;;;;;;4.78;2.80;;;;;;;;;;4910667;29;20063;-77
2021/06/26 07:44:07;;;;;;;3.83;2.90;;;;;;;;;;4926783;28;20070;-77
2021/06/26 07:46:33;;;;;;;5.47;3.15;;;;;;;;;;4928104;29;20055;-78
2021/06/26 07:49:00;;;;;;;5.35;2.97;;;;;;;;;;4923719;28;20118;-79
2021/06/26 07:51:26;;;;;;;4.68;3.20;;;;;;;;;;4926409;29;20208;-78
2021/06/26 07:53:53;;;;;;;3.95;2.83;;;;;;;;;;4925599;28;20044;-77
2021/06/26 07:56:19;;;;;;;4.35;2.78;;;;;;;;;;4926277;28;20429;-76
2021/06/26 07:58:45;;;;;;;6.18;3.00;;;;;;;;;;4927415;28;20067;-76
2021/06/26 08:01:12;;;;;;;4.38;2.88;;;;;;;;;;4927043;28;20063;-76
2021/06/26 08:03:38;;;;;;;3.75;2.65;;;;;;;;;;4926175;28;20071;-77
2021/06/26 08:06:05;;;;;;;5.68;2.67;;;;;;;;;;4924826;28;20066;-77
2021/06/26 08:08:31;;;;;;;4.53;3.00;;;;;;;;;;4925702;28;20082;-77
2021/06/26 08:10:57;;;;;;;4.65;3.00;;;;;;;;;;4925433;28;20059;-77
2021/06/26 08:13:24;;;;;;;6.22;3.17;;;;;;;;;;4925572;28;20546;-76
2021/06/26 08:15:51;;;;;;;6.80;3.08;;;;;;;;;;4926608;28;20475;-75
2021/06/26 08:18:17;;;;;;;5.57;3.20;;;;;;;;;;4925160;28;20082;-77
2021/06/26 08:20:44;;;;;;;4.70;3.45;;;;;;;;;;4926605;28;20067;-81
2021/06/26 08:23:11;;;;;;;4.43;3.30;;;;;;;;;;4926459;28;20067;-79
2021/06/26 08:25:37;;;;;;;5.63;3.70;;;;;;;;;;4927630;28;20495;-78
2021/06/26 08:28:04;;;;;;;6.60;3.70;;;;;;;;;;4928397;28;20063;-78
2021/06/26 08:30:31;;;;;;;5.82;3.45;;;;;;;;;;4927542;28;20066;-77
2021/06/26 08:32:58;;;;;;;5.30;3.15;;;;;;;;;;4926591;28;20063;-77
2021/06/26 08:35:24;;;;;;;4.38;3.28;;;;;;;;;;4926922;28;20507;-79
2021/06/26 08:37:51;;;;;;;5.35;3.45;;;;;;;;;;4925038;28;20087;-78
2021/06/26 08:40:18;;;;;;;5.57;3.20;;;;;;;;;;4926737;28;20059;-79
2021/06/26 08:42:44;;;;;;;3.78;2.58;;;;;;;;;;4924439;29;20064;-80
2021/06/26 08:45:15;;;;;;;6.13;3.25;;;;;;;;;;4926759;28;20063;-79
2021/06/26 08:47:42;;;;;;;5.20;3.60;;;;;;;;;;4927293;28;20066;-78
2021/06/26 08:50:09;;;;;;;6.00;4.15;;;;;;;;;;4924389;29;20111;-79
2021/06/26 08:52:35;;;;;;;5.80;3.63;;;;;;;;;;4926752;28;20055;-78
2021/06/26 08:55:02;;;;;;;5.07;3.92;;;;;;;;;;4926174;28;20056;-79
2021/06/26 08:57:32;;;;;;;5.53;3.85;;;;;;;;;;4930749;28;20071;-78
2021/06/26 08:59:59;;;;;;;6.18;4.10;;;;;;;;;;4930011;28;20072;-78
2021/06/26 09:02:26;;;;;;;4.25;3.60;;;;;;;;;;4931307;28;20042;-78
2021/06/26 09:04:54;;;;;;;4.53;3.65;;;;;;;;;;4931002;28;20114;-79
2021/06/26 09:07:27;;;;;;;6.32;3.92;;;;;;;;;;4928778;28;20063;-79
2021/06/26 09:09:56;;;;;;;4.65;3.65;;;;;;;;;;4929473;28;20095;-78
2021/06/26 09:12:23;;;;;;;5.65;4.43;;;;;;;;;;4929688;28;20064;-79
2021/06/26 09:14:50;;;;;;;3.53;2.75;;;;;;;;;;4929391;28;20059;-78
2021/06/26 09:17:18;;;;;;;4.05;2.83;;;;;;;;;;4930063;28;20070;-79
2021/06/26 09:19:57;;;;;;;4.13;3.00;;;;;;;;;;4935966;28;20070;-78
2021/06/26 09:22:24;;;;;;;6.93;4.20;;;;;;;;;;4939154;28;20115;-78
2021/06/26 09:24:51;;;;;;;5.68;4.18;;;;;;;;;;4934375;28;20039;-77
2021/06/26 09:27:19;;;;;;;7.38;4.45;;;;;;;;;;4920692;29;20031;-80
2021/06/26 09:29:48;;;;;;;5.32;4.35;;;;;;;;;;4937159;28;20043;-79
2021/06/26 09:32:17;;;;;;;6.30;4.05;;;;;;;;;;4936226;29;20046;-78
2021/06/26 09:34:45;;;;;;;5.40;4.50;;;;;;;;;;4945213;29;20110;-78
2021/06/26 09:37:32;;;;;;;6.90;4.43;;;;;;;;;;4926779;28;21195;-78
2021/06/26 09:39:59;;;;;;;7.65;4.78;;;;;;;;;;4926469;28;20043;-76
2021/06/26 09:42:28;;;;;;;4.63;3.90;;;;;;;;;;4929259;28;20138;-78
2021/06/26 09:44:55;;;;;;;5.55;4.30;;;;;;;;;;4928891;28;20118;-78
2021/06/26 09:47:25;;;;;;;6.68;4.47;;;;;;;;;;4928954;29;20155;-77
2021/06/26 09:49:52;;;;;;;4.90;3.73;;;;;;;;;;4933761;28;20051;-77
2021/06/26 09:52:18;;;;;;;5.93;4.20;;;;;;;;;;4934549;29;20044;-76
2021/06/26 09:54:45;;;;;;;5.50;3.97;;;;;;;;;;4932243;28;20036;-77
2021/06/26 09:57:11;;;;;;;4.80;3.83;;;;;;;;;;4933446;28;20571;-77
2021/06/26 09:59:38;;;;;;;3.67;3.15;;;;;;;;;;4932989;28;20044;-77
2021/06/26 10:02:04;;;;;;;3.55;2.60;;;;;;;;;;4934614;28;20075;-77
2021/06/26 10:04:31;;;;;;;6.05;3.72;;;;;;;;;;4932033;28;20757;-77
2021/06/26 10:06:59;;;;;;;4.43;3.60;;;;;;;;;;4936669;28;20028;-78
2021/06/26 10:09:25;;;;;;;4.97;3.88;;;;;;;;;;4936515;29;20071;-78
2021/06/26 10:11:52;;;;;;;5.57;4.22;;;;;;;;;;4933835;28;20039;-75
2021/06/26 10:14:19;;;;;;;7.03;4.75;;;;;;;;;;4931320;28;20066;-77
2021/06/26 10:16:45;;;;;;;6.38;4.78;;;;;;;;;;4928211;28;20433;-78
2021/06/26 10:19:13;;;;;;;7.13;4.82;;;;;;;;;;4932643;28;20058;-78
2021/06/26 10:21:40;;;;;;;5.78;4.20;;;;;;;;;;4939365;28;20035;-78
2021/06/26 10:24:11;;;;;;;8.23;4.40;;;;;;;;;;4935133;28;20126;-77
2021/06/26 10:26:40;;;;;;;5.55;4.80;;;;;;;;;;4932297;29;20055;-78
2021/06/26 10:29:06;;;;;;;5.32;4.25;;;;;;;;;;4931210;28;20035;-77
2021/06/26 10:31:35;;;;;;;6.43;4.53;;;;;;;;;;4934057;28;20035;-76
2021/06/26 10:34:08;;;;;;;7.05;4.45;;;;;;;;;;4928277;28;20266;-77
2021/06/26 10:36:36;;;;;;;6.40;3.88;;;;;;;;;;4929491;28;20055;-76
2021/06/26 10:39:03;;;;;;;5.65;4.20;;;;;;;;;;4929121;28;20142;-77
2021/06/26 10:41:30;;;;;;;5.65;4.20;;;;;;;;;;4925011;29;20204;-76
2021/06/26 10:43:57;;;;;;;4.82;4.07;;;;;;;;;;4925920;28;20071;-77
2021/06/26 10:46:23;;;;;;;7.75;4.28;;;;;;;;;;4930585;28;20063;-77
2021/06/26 10:48:56;;;;;;;5.82;3.92;;;;;;;;;;4927704;28;20063;-77
2021/06/26 10:51:36;;;;;;;5.72;4.00;;;;;;;;;;4928963;28;20059;-77
2021/06/26 10:54:11;;;;;;;7.35;3.70;;;;;;;;;;4928276;28;20352;-77
2021/06/26 10:56:38;;;;;;;5.72;3.47;;;;;;;;;;4926017;28;20051;-79
2021/06/26 10:59:23;;;;;;;5.20;3.00;;;;;;;;;;4927789;28;20059;-79
2021/06/26 11:02:00;;;;;;;3.83;2.85;;;;;;;;;;4942641;28;20118;-78
2021/06/26 11:04:27;;;;;;;4.68;3.05;;;;;;;;;;4928225;29;20099;-81
2021/06/26 11:07:06;;;;;;;3.70;2.85;;;;;;;;;;4928076;28;20060;-80
2021/06/26 11:09:40;;;;;;;5.07;3.28;;;;;;;;;;4928612;28;20126;-80
2021/06/26 11:12:13;;;;;;;6.75;3.08;;;;;;;;;;4926529;28;20116;-80
2021/06/26 11:14:56;;;;;;;4.40;3.00;;;;;;;;;;4927712;28;20064;-79
2021/06/26 11:17:23;;;;;;;4.78;3.00;;;;;;;;;;4928623;28;21308;-80
2021/06/26 11:19:50;;;;;;;4.82;3.17;;;;;;;;;;4926322;28;20115;-79
2021/06/26 11:22:17;;;;;;;5.75;2.95;;;;;;;;;;4927662;29;20137;-79
2021/06/26 11:24:45;;;;;;;4.55;3.30;;;;;;;;;;4926153;28;20063;-80
2021/06/26 11:27:14;;;;;;;6.60;2.90;;;;;;;;;;4925139;28;20393;-80
2021/06/26 11:29:44;;;;;;;7.53;3.08;;;;;;;;;;4928433;28;20055;-80
2021/06/26 11:32:21;;;;;;;3.97;3.13;;;;;;;;;;4926828;28;20110;-79
2021/06/26 11:34:55;;;;;;;5.15;2.80;;;;;;;;;;4928744;28;20063;-80
2021/06/26 11:37:21;;;;;;;4.13;2.80;;;;;;;;;;4929961;28;20051;-80
2021/06/26 11:39:48;;;;;;;3.60;2.80;;;;;;;;;;4925201;28;20157;-79
2021/06/26 11:42:18;;;;;;;4.55;3.08;;;;;;;;;;4926926;28;20067;-81
2021/06/26 11:44:45;;;;;;;4.20;2.90;;;;;;;;;;4927737;29;20075;-78
2021/06/26 11:47:12;;;;;;;3.95;2.97;;;;;;;;;;4928075;28;21412;-81
2021/06/26 11:49:40;;;;;;;3.90;2.95;;;;;;;;;;4926914;29;20130;-79
2021/06/26 11:52:08;;;;;;;4.50;3.03;;;;;;;;;;4926732;28;20815;-80
2021/06/26 11:54:34;;;;;;;4.28;2.97;;;;;;;;;;4926073;29;20064;-79
2021/06/26 11:57:02;;;;;;;3.72;2.95;;;;;;;;;;4923370;29;20083;-79
2021/06/26 11:59:40;;;;;;;4.15;3.00;;;;;;;;;;4928590;28;20059;-79
2021/06/26 12:02:07;;;;;;;4.88;3.20;;;;;;;;;;4925216;29;20067;-79
2021/06/26 12:04:34;;;;;;;4.85;3.15;;;;;;;;;;4930240;28;20099;-79
2021/06/26 12:07:00;;;;;;;4.80;3.17;;;;;;;;;;4926368;28;20444;-80
2021/06/26 12:09:27;;;;;;;4.13;3.10;;;;;;;;;;4926863;29;20103;-79
2021/06/26 12:11:57;;;;;;;5.07;3.50;;;;;;;;;;4925158;28;20071;-80
2021/06/26 12:14:27;;;;;;;4.07;3.22;;;;;;;;;;4926070;28;20051;-80
2021/06/26 12:16:54;;;;;;;5.47;3.30;;;;;;;;;;4926207;28;20067;-80
2021/06/26 12:19:32;;;;;;;4.72;3.40;;;;;;;;;;4927027;28;20067;-80
2021/06/26 12:21:59;;;;;;;5.07;3.35;;;;;;;;;;4928015;28;20091;-78
2021/06/26 12:24:25;;;;;;;5.20;3.80;;;;;;;;;;4926195;28;20225;-84
2021/06/26 12:27:02;;;;;;;5.55;3.83;;;;;;;;;;4928846;28;20288;-83
2021/06/26 12:29:28;;;;;;;6.97;4.10;;;;;;;;;;4927665;28;20071;-84
2021/06/26 12:31:55;;;;;;;5.80;4.00;;;;;;;;;;4924339;28;20107;-84
2021/06/26 12:34:21;;;;;;;7.75;4.28;;;;;;;;;;4931610;28;20043;-84
2021/06/26 12:36:58;;;;;;;6.53;4.13;;;;;;;;;;4918607;28;20134;-85
2021/06/26 12:39:31;;;;;;;7.28;4.18;;;;;;;;;;4928023;28;20468;-85
2021/06/26 12:42:01;;;;;;;6.22;4.32;;;;;;;;;;4918517;28;20103;-84
2021/06/26 12:44:27;;;;;;;7.40;4.82;;;;;;;;;;4942931;28;20608;-84
2021/06/26 12:46:54;;;;;;;7.50;5.00;;;;;;;;;;4928644;28;20122;-84
2021/06/26 12:49:32;;;;;;;7.50;4.70;;;;;;;;;;4928220;28;20059;-85
2021/06/26 12:52:08;;;;;;;12.13;4.65;;;;;;;;;;4928901;28;20079;-84
2021/06/26 12:54:34;;;;;;;5.93;4.70;;;;;;;;;;4941831;29;20586;-85
2021/06/26 12:57:00;;;;;;;5.80;4.60;;;;;;;;;;4923697;28;20119;-85
2021/06/26 12:59:32;;;;;;;8.18;4.95;;;;;;;;;;4942134;28;20063;-83
2021/06/26 13:01:59;;;;;;;7.95;4.80;;;;;;;;;;4925225;28;20075;-85
2021/06/26 13:04:36;;;;;;;9.15;4.65;;;;;;;;;;4927530;28;20055;-83
2021/06/26 13:07:03;;;;;;;7.57;4.28;;;;;;;;;;4925052;28;20114;-83
2021/06/26 13:09:32;;;;;;;5.95;4.63;;;;;;;;;;4927682;28;20063;-81
2021/06/26 13:12:11;;;;;;;6.03;5.30;;;;;;;;;;4925369;28;20126;-81
2021/06/26 13:14:44;;;;;;;8.23;5.18;;;;;;;;;;4924397;29;20080;-79
2021/06/26 13:17:13;;;;;;;11.07;6.00;;;;;;;;;;4916819;29;20059;-81
2021/06/26 13:19:40;;;;;;;8.52;5.43;;;;;;;;;;4933611;28;20031;-81
2021/06/26 13:22:07;;;;;;;9.23;5.25;;;;;;;;;;4931901;28;20044;-81
2021/06/26 13:24:34;;;;;;;8.48;5.70;;;;;;;;;;4929057;29;20043;-81
2021/06/26 13:27:01;;;;;;;7.32;5.43;;;;;;;;;;4928632;28;20034;-82
2021/06/26 13:29:27;;;;;;;6.85;5.40;;;;;;;;;;4927620;28;20040;-82
2021/06/26 13:31:54;;;;;;;8.13;5.43;;;;;;;;;;4927529;28;20094;-82
2021/06/26 13:34:20;;;;;;;7.18;5.20;;;;;;;;;;4926685;28;20052;-81
2021/06/26 13:36:47;;;;;;;7.47;5.53;;;;;;;;;;4927094;29;20075;-80
2021/06/26 13:39:13;;;;;;;8.45;5.30;;;;;;;;;;4926852;29;20060;-84
2021/06/26 13:41:40;;;;;;;8.48;5.65;;;;;;;;;;4926720;28;20070;-81
2021/06/26 13:44:06;;;;;;;7.65;5.10;;;;;;;;;;4927031;29;20119;-81
2021/06/26 13:46:33;;;;;;;7.35;5.70;;;;;;;;;;4926248;29;20067;-81
2021/06/26 13:48:59;;;;;;;6.22;5.05;;;;;;;;;;4939616;29;20544;-84
2021/06/26 13:51:26;;;;;;;8.70;5.05;;;;;;;;;;4928987;28;20067;-82
2021/06/26 13:53:53;;;;;;;7.90;4.70;;;;;;;;;;4929274;28;20071;-81
2021/06/26 13:56:20;;;;;;;7.57;5.30;;;;;;;;;;4931151;29;20446;-81
2021/06/26 13:58:46;;;;;;;9.05;5.35;;;;;;;;;;4928877;28;20056;-79
2021/06/26 14:01:13;;;;;;;6.38;5.05;;;;;;;;;;4930530;28;20067;-80
2021/06/26 14:03:39;;;;;;;5.80;4.90;;;;;;;;;;4924215;28;20079;-83
2021/06/26 14:06:06;;;;;;;6.72;4.90;;;;;;;;;;4924723;28;21705;-82
2021/06/26 14:08:32;;;;;;;7.95;5.13;;;;;;;;;;4926369;28;20992;-82
2021/06/26 14:10:59;;;;;;;8.35;5.35;;;;;;;;;;4923952;29;20507;-82
2021/06/26 14:13:25;;;;;;;7.90;5.30;;;;;;;;;;4926245;28;20154;-81
2021/06/26 14:15:52;;;;;;;8.90;5.20;;;;;;;;;;4927394;28;21486;-81
2021/06/26 14:18:18;;;;;;;7.93;5.32;;;;;;;;;;4922288;28;20063;-81
2021/06/26 14:20:45;;;;;;;6.35;4.95;;;;;;;;;;4925930;28;20560;-83
2021/06/26 14:23:12;;;;;;;7.88;5.25;;;;;;;;;;4923113;28;20364;-83
2021/06/26 14:25:38;;;;;;;8.02;5.82;;;;;;;;;;4925458;29;20118;-83
2021/06/26 14:28:04;;;;;;;6.82;4.82;;;;;;;;;;4925818;28;20063;-82
2021/06/26 14:30:31;;;;;;;9.93;5.03;;;;;;;;;;4930027;28;20067;-82
2021/06/26 14:32:57;;;;;;;7.20;5.53;;;;;;;;;;4927035;28;20067;-81
2021/06/26 14:35:24;;;;;;;6.65;5.40;;;;;;;;;;4928329;29;20070;-79
2021/06/26 14:37:51;;;;;;;6.07;4.50;;;;;;;;;;4927693;28;20070;-80
2021/06/26 14:40:18;;;;;;;6.78;5.57;;;;;;;;;;4928567;28;20064;-81
2021/06/26 14:42:45;;;;;;;5.70;4.97;;;;;;;;;;4929366;28;20078;-81
2021/06/26 14:45:11;;;;;;;7.07;5.30;;;;;;;;;;4926958;28;21281;-81